TimeMST,TemperatureF,Dew PointF,Humidity,Sea Level PressureIn,VisibilityMPH,Wind Direction,Wind SpeedMPH,Gust SpeedMPH,PrecipitationIn,Events,Conditions,WindDirDegrees,DateUTC
12:53 AM,15.8,8.6,73,30.02,10.0,SW,16.1,-,N/A,,Partly Cloudy,230,2012-12-31 07:53:00
1:53 AM,15.1,7.0,70,30.17,10.0,SW,13.8,-,N/A,,Clear,230,2012-12-31 08:53:00
2:53 AM,12.9,6.1,74,30.18,10.0,SW,13.8,-,N/A,,Clear,230,2012-12-31 09:53:00
3:53 AM,12.9,5.0,71,30.19,10.0,SSW,13.8,-,N/A,,Clear,210,2012-12-31 10:53:00
4:53 AM,9.0,3.9,80,30.19,10.0,SW,16.1,-,N/A,,Clear,230,2012-12-31 11:53:00
5:53 AM,10.9,3.9,73,30.19,10.0,SW,20.7,-,N/A,,Clear,230,2012-12-31 12:53:00
6:53 AM,10.0,3.0,73,30.20,10.0,SW,16.1,-,N/A,,Clear,230,2012-12-31 13:53:00
7:53 AM,10.0,3.0,73,30.20,10.0,SW,17.3,-,N/A,,Clear,230,2012-12-31 14:53:00
8:53 AM,10.9,3.9,73,30.19,10.0,SW,17.3,26.5,N/A,,Clear,230,2012-12-31 15:53:00
9:53 AM,10.9,3.9,73,30.21,10.0,SW,19.6,-,N/A,,Clear,230,2012-12-31 16:53:00
10:53 AM,16.0,6.1,65,30.21,10.0,SW,18.4,-,N/A,,Clear,230,2012-12-31 17:53:00
11:53 AM,19.0,9.0,65,30.17,10.0,WSW,15.0,-,N/A,,Clear,240,2012-12-31 18:53:00
12:53 PM,21.9,10.0,60,30.14,10.0,WSW,17.3,-,N/A,,Partly Cloudy,240,2012-12-31 19:53:00
1:53 PM,23.0,10.9,60,30.14,10.0,SW,11.5,-,N/A,,Partly Cloudy,230,2012-12-31 20:53:00
2:53 PM,24.1,10.9,57,30.15,10.0,WSW,16.1,-,N/A,,Partly Cloudy,240,2012-12-31 21:53:00
3:53 PM,23.0,10.9,60,30.15,10.0,WSW,16.1,-,N/A,,Partly Cloudy,240,2012-12-31 22:53:00
4:53 PM,21.0,10.9,65,30.17,10.0,WSW,13.8,-,N/A,,Scattered Clouds,240,2012-12-31 23:53:00
5:53 PM,21.0,10.9,65,30.18,10.0,WSW,16.1,-,N/A,,Overcast,240,2013-01-01 00:53:00
6:53 PM,21.0,10.9,65,30.18,10.0,WSW,17.3,-,0.00,Snow,Light Snow,240,2013-01-01 01:53:00
7:53 PM,21.2,10.4,63,30.03,9.0,SW,16.1,-,N/A,,Overcast,230,2013-01-01 02:53:00
8:53 PM,21.0,10.9,65,30.19,10.0,SW,16.1,-,N/A,,Overcast,230,2013-01-01 03:53:00
9:53 PM,21.0,10.9,65,30.20,10.0,SW,15.0,-,N/A,,Overcast,220,2013-01-01 04:53:00
10:53 PM,21.0,12.0,68,30.20,10.0,SW,16.1,-,N/A,,Mostly Cloudy,230,2013-01-01 05:53:00
11:53 PM,21.0,10.9,65,30.21,10.0,SW,15.0,-,N/A,,Overcast,230,2013-01-01 06:53:00